• Join FlightAware (Why Join?)
  • Login
  • US Flag 
03:08PM EDT


 

Airport Tracker/Info


-or-


 

Live Flight TrackerFlight Track Log ✈ BAW283 ✈ 10-May-2013 ✈ EGLL / LHR - KLAX

Flight Track Log - Related Links

Times and Time Zones

All times are in EDT time to prevent confusion due to time zone crossing. See the BAW283 flight status page for this flight to view local times or setup timezone preferences in your user account.

Time Position Orientation Groundspeed Altitude Reporting Facility
EDT Latitude Longitude Course Direction KTS MPH feet Rate Location/Type
07:25AM 51.4650 -0.4930 269° West 161 185 600  Level FlightAware
07:25AM 51.4700 -0.5260 284° West 169 194 1,300 -180 Climbing FlightAware
07:26AM 51.4805 -0.5591 284° West 198 228 500 1,920 Descending FlightAware UK
07:26AM 51.4810 -0.5590 284° West 184 212 2,100 7,980 Climbing FlightAware
07:26AM 51.4874 -0.5806 295° West 177 204 2,900 3,240 Climbing FlightAware ADS-B
07:26AM 51.4922 -0.5945 299° West 177 204 3,300 1,980 Climbing FlightAware ADS-B
07:26AM 51.4965 -0.6071 299° West 176 203 3,700 1,740 Climbing FlightAware ADS-B
07:27AM 51.5027 -0.6257 298° West 180 207 4,100 1,740 Climbing FlightAware ADS-B
07:27AM 51.5070 -0.6388 298° West 181 208 4,500 1,560 Climbing FlightAware ADS-B
07:27AM 51.5133 -0.6570 299° West 194 223 4,800 1,260 Climbing FlightAware ADS-B
07:27AM 51.5152 -0.6618 302° West 198 228 4,900 840 Climbing FlightAware ADS-B
07:27AM 51.5174 -0.6665 307° West 205 236 4,900  Level FlightAware ADS-B
07:27AM 51.5202 -0.6710 315° West 212 244 4,900 840 Level FlightAware ADS-B
07:27AM 51.5227 -0.6738 325° Northwest 219 252 5,000 1,680 Climbing FlightAware ADS-B
07:27AM 51.5257 -0.6764 332° Northwest 226 260 5,100 840 Climbing FlightAware ADS-B
07:27AM 51.5290 -0.6785 339° North 232 267 5,100 660 Level FlightAware ADS-B
07:27AM 51.5354 -0.6822 340° North 242 278 5,200 1,200 Climbing FlightAware ADS-B
07:27AM 51.5391 -0.6833 350° North 249 287 5,300 1,320 Climbing FlightAware ADS-B
07:28AM 51.5457 -0.6845 354° North 259 298 5,400 1,260 Climbing FlightAware ADS-B
07:28AM 51.5566 -0.6850 358° North 271 312 5,600 1,740 Climbing FlightAware ADS-B
07:28AM 51.5758 -0.6855 359° North 284 327 6,100 2,640 Climbing FlightAware ADS-B
07:28AM 51.5894 -0.6861 358° North 284 327 6,700 2,760 Climbing FlightAware ADS-B
07:28AM 51.6101 -0.6877 357° North 282 325 7,300 2,100 Climbing FlightAware ADS-B
07:29AM 51.6301 -0.6900 356° North 283 326 7,800 1,440 Climbing FlightAware ADS-B
07:29AM 51.6482 -0.6921 356° North 280 322 8,000 660 Climbing FlightAware ADS-B
07:29AM 51.6526 -0.6927 355° North 277 319 8,000  Level FlightAware ADS-B
07:29AM 51.6652 -0.6960 351° North 273 314 8,000  Level FlightAware ADS-B
07:29AM 51.6838 -0.7019 349° North 273 314 8,000  Level FlightAware ADS-B
07:30AM 51.7036 -0.7088 348° North 272 313 8,000 360 Level FlightAware ADS-B
07:30AM 51.7248 -0.7158 349° North 273 314 8,200 1,020 Climbing FlightAware ADS-B
07:30AM 51.7466 -0.7229 349° North 275 316 8,600 1,440 Climbing FlightAware ADS-B
07:30AM 51.7657 -0.7288 349° North 278 320 9,000 2,160 Climbing FlightAware ADS-B
07:31AM 51.7886 -0.7360 349° North 281 323 9,800 1,980 Climbing FlightAware ADS-B
07:31AM 51.8285 -0.7491 349° North 300 345 10,600 1,200 Climbing FlightAware ADS-B
07:32AM 51.8747 -0.7645 348° North 334 384 11,100 -1,020 Climbing FlightAware ADS-B
07:32AM 51.8985 -0.7727 348° North 364 419 9,800 1,200 Descending FlightAware UK
07:32AM 51.9222 -0.7807 348° North 359 413 11,700 3,900 Climbing FlightAware ADS-B
07:33AM 51.9740 -0.7980 348° North 369 425 12,800 2,100 Climbing FlightAware ADS-B
07:33AM 52.0251 -0.8152 348° North 377 434 13,900 2,100 Climbing FlightAware ADS-B
07:34AM 52.0608 -0.8293 346° North 380 437 14,600 1,980 Climbing FlightAware ADS-B
07:34AM 52.1153 -0.8658 338° Northwest 384 442 15,700 1,920 Climbing FlightAware ADS-B
07:35AM 52.1666 -0.8988 338° Northwest 392 451 16,700  Climbing FlightAware ADS-B
07:35AM 52.1978 -0.9208 338° Northwest 414 476 15,700 1,800 Descending FlightAware UK
07:35AM 52.2175 -0.9341 338° Northwest 399 459 17,600 1,980 Climbing FlightAware ADS-B
07:36AM 52.2492 -0.9555 338° Northwest 420 483 16,700 1,920 Descending FlightAware UK
07:36AM 52.3065 -0.9969 338° Northwest 404 465 19,300 3,900 Climbing FlightAware ADS-B
07:36AM 52.3289 -1.0197 328° Northwest 405 466 19,800 1,920 Climbing FlightAware ADS-B
07:37AM 52.3846 -1.0768 328° Northwest 414 476 20,900 60 Climbing FlightAware ADS-B
07:37AM 52.4161 -1.1112 328° Northwest 442 509 19,900 1,860 Descending FlightAware UK
07:37AM 52.4367 -1.1314 328° Northwest 422 486 21,900 3,960 Climbing FlightAware ADS-B
07:38AM 52.4888 -1.1882 326° Northwest 429 494 22,900 -180 Climbing FlightAware ADS-B
07:38AM 52.5148 -1.2172 326° Northwest 452 520 21,800 1,800 Descending FlightAware UK
07:38AM 52.5397 -1.2444 326° Northwest 435 501 23,800 3,780 Climbing FlightAware ADS-B
07:39AM 52.5925 -1.3017 327° Northwest 443 510 24,700 1,500 Climbing FlightAware ADS-B
07:39AM 52.6326 -1.3406 330° Northwest 453 521 25,200 -960 Climbing FlightAware ADS-B
07:40AM 52.6608 -1.3670 330° Northwest 468 539 24,100 1,560 Descending FlightAware UK
07:40AM 52.6886 -1.3895 330° Northwest 459 528 26,000 1,500 Climbing FlightAware ADS-B
07:40AM 52.7281 -1.4257 330° Northwest 476 548 25,000 1,440 Descending FlightAware UK
07:40AM 52.7508 -1.4437 330° Northwest 463 533 26,800 1,500 Climbing FlightAware ADS-B
07:41AM 52.8194 -1.5055 330° Northwest 486 559 26,200 1,380 Descending FlightAware UK
07:41AM 52.8310 -1.5160 330° Northwest 470 541 27,900 3,840 Climbing FlightAware
07:42AM 52.8992 -1.5757 332° Northwest 468 539 28,900  Climbing FlightAware ADS-B
07:42AM 52.9694 -1.6405 332° Northwest 498 573 27,900 1,200 Descending FlightAware UK
07:43AM 52.9970 -1.6640 332° Northwest 478 550 30,000 1,800 Climbing FlightAware
07:43AM 53.0397 -1.7036 332° Northwest 496 571 29,000 1,200 Descending FlightAware UK
07:43AM 53.0740 -1.7340 332° Northwest 483 556 30,800 3,660 Climbing FlightAware
07:43AM 53.1009 -1.7586 331° Northwest 487 560 30,900 -2,460 Climbing FlightAware ADS-B
07:44AM 53.1338 -1.7883 331° Northwest 504 580 29,700 1,500 Descending FlightAware UK
07:44AM 53.1640 -1.8130 331° Northwest 485 558 31,800 3,360 Climbing FlightAware
07:44AM 53.2149 -1.8593 331° Northwest 485 558 32,000 -1,800 Climbing FlightAware ADS-B
07:45AM 53.2646 -1.9049 331° Northwest 500 575 30,400  Descending FlightAware UK
07:45AM 53.2847 -1.9272 331° Northwest 485 558 32,000 3,540 Climbing FlightAware ADS-B
07:45AM 53.3109 -1.9663 318° Northwest 474 545 32,000 -3,120 Level FlightAware ADS-B
07:46AM 53.3319 -2.0091 318° Northwest 490 564 30,400  Descending FlightAware UK
07:46AM 53.3470 -2.0449 318° Northwest 455 524 32,000  Climbing FlightAware ADS-B
07:46AM 53.3716 -2.1151 318° Northwest 480 552 30,400 -2,100 Descending FlightAware UK
07:47AM 53.3975 -2.1863 301° West 484 557 30,400 2,460 Level FlightAware UK
07:47AM 53.4110 -2.2230 301° West 447 514 32,000  Climbing FlightAware
07:47AM 53.4292 -2.2757 301° West 478 550 30,400 -3,000 Descending FlightAware UK
07:47AM 53.4480 -2.3286 301° West 478 550 30,400 3,840 Level FlightAware UK
07:47AM 53.4530 -2.3430 301° West 445 512 32,000  Climbing FlightAware
07:48AM 53.4732 -2.4007 301° West 478 550 30,400  Descending FlightAware UK
07:48AM 53.4990 -2.4740 301° West 445 512 32,000  Climbing FlightAware
07:49AM 53.5356 -2.5793 301° West 476 548 30,400  Descending FlightAware UK
07:49AM 53.5410 -2.5930 301° West 446 513 32,000  Climbing FlightAware
07:49AM 53.5607 -2.6510 301° West 478 550 30,400 -2,940 Descending FlightAware UK
07:49AM 53.5795 -2.7049 300° West 476 548 30,400 3,180 Level FlightAware UK
07:50AM 53.5870 -2.7250 300° West 448 516 32,000  Climbing FlightAware
07:50AM 53.6171 -2.8123 300° West 480 552 30,400  Descending FlightAware UK
07:50AM 53.6310 -2.8520 300° West 449 517 32,000  Climbing FlightAware
07:51AM 53.6606 -2.9389 300° West 476 548 30,400  Descending FlightAware UK
07:51AM 53.6710 -2.9670 300° West 449 517 32,000  Climbing FlightAware
07:51AM 53.6921 -3.0305 300° West 478 550 30,400 -2,400 Descending FlightAware UK
07:52AM 53.7169 -3.1029 300° West 482 555 30,400 3,300 Level FlightAware UK
07:52AM 53.7210 -3.1160 300° West 452 520 32,000  Climbing FlightAware
07:52AM 53.7483 -3.1948 300° West 482 555 30,400  Descending FlightAware UK
07:52AM 53.7610 -3.2320 300° West 452 520 32,000  Climbing FlightAware
07:53AM 53.7857 -3.3052 300° West 482 555 30,400  Descending FlightAware UK
07:53AM 53.8080 -3.3700 300° West 450 518 32,000  Climbing FlightAware
07:53AM 53.8291 -3.4328 300° West 480 552 30,400  Descending FlightAware UK
07:54AM 53.8500 -3.4870 300° West 451 519 32,000  Climbing FlightAware
07:54AM 53.8776 -3.5559 300° West 478 550 30,400  Descending FlightAware UK
07:54AM 53.8970 -3.6040 300° West 450 518 32,000 1,440 Climbing FlightAware
07:55AM 53.9500 -3.7390 304° West 450 518 32,000 -1,380 Level FlightAware
07:56AM 53.9813 -3.8197 304° West 478 550 30,400  Descending FlightAware UK
07:56AM 53.9950 -3.8540 304° West 450 518 32,000  Climbing FlightAware
07:56AM 54.0224 -3.9260 304° West 476 548 30,400 -2,520 Descending FlightAware UK
07:57AM 54.0432 -3.9791 304° West 476 548 30,400 3,960 Level FlightAware UK
07:57AM 54.0440 -3.9800 304° West 451 519 32,000  Climbing FlightAware
07:57AM 54.0918 -4.1031 304° West 476 548 30,400  Descending FlightAware UK
07:57AM 54.0950 -4.1110 304° West 451 519 32,000  Climbing FlightAware
07:58AM 54.1195 -4.1743 304° West 476 548 30,400  Descending FlightAware UK
07:58AM 54.1380 -4.2210 304° West 451 519 32,000  Climbing FlightAware
07:58AM 54.1608 -4.2806 304° West 476 548 30,400 -2,940 Descending FlightAware UK
07:59AM 54.1815 -4.3340 304° West 476 548 30,400 4,800 Level FlightAware UK
07:59AM 54.1790 -4.3270 304° West 451 519 32,000  Climbing FlightAware
07:59AM 54.2021 -4.3876 304° West 476 548 30,400 -2,400 Descending FlightAware UK
07:59AM 54.2297 -4.4590 303° West 472 543 30,400 2,820 Level FlightAware UK
07:59AM 54.2400 -4.4850 303° West 452 520 32,000  Climbing FlightAware
08:00AM 54.2640 -4.5486 303° West 476 548 30,400  Descending FlightAware UK
08:00AM 54.2740 -4.5750 303° West 453 521 32,000  Climbing FlightAware
08:00AM 54.2984 -4.6385 303° West 472 543 30,400  Descending FlightAware UK
08:01AM 54.3160 -4.6830 303° West 455 524 32,000  Climbing FlightAware
08:01AM 54.3398 -4.7469 303° West 476 548 30,400 -2,880 Descending FlightAware UK
08:01AM 54.3606 -4.8013 303° West 478 550 30,400 3,960 Level FlightAware UK
08:01AM 54.3600 -4.8010 303° West 456 525 32,000  Climbing FlightAware
08:02AM 54.3881 -4.8741 303° West 476 548 30,400 -2,700 Descending FlightAware UK
08:02AM 54.4085 -4.9282 303° West 480 552 30,400 3,540 Level FlightAware UK
08:02AM 54.4170 -4.9490 303° West 454 522 32,000  Climbing FlightAware
08:02AM 54.4359 -5.0010 303° West 476 548 30,400 -2,940 Descending FlightAware UK
08:03AM 54.4564 -5.0555 303° West 476 548 30,400 3,840 Level FlightAware UK
08:03AM 54.4610 -5.0670 303° West 454 522 32,000  Climbing FlightAware
08:03AM 54.4836 -5.1282 303° West 474 545 30,400 -2,400 Descending FlightAware UK
08:03AM 54.5108 -5.2008 303° West 474 545 30,400 3,420 Level FlightAware UK
08:03AM 54.5120 -5.2000 303° West 452 520 32,000  Climbing FlightAware
08:04AM 54.5380 -5.2733 303° West 478 550 30,400  Descending FlightAware UK
08:04AM 54.5580 -5.3250 303° West 461 531 32,000 120 Climbing FlightAware
08:04AM 54.5793 -5.3849 303° West 484 557 30,500 -2,880 Descending FlightAware UK
08:05AM 54.6001 -5.4413 303° West 484 557 30,400 3,720 Descending FlightAware UK
08:05AM 54.6040 -5.4500 303° West 465 535 32,000 1,860 Climbing FlightAware
08:05AM 54.6560 -5.5910 303° West 468 539 32,000 -1,500 Level FlightAware
08:06AM 54.6765 -5.6482 303° West 490 564 30,500 -2,760 Descending FlightAware UK
08:06AM 54.6973 -5.7052 302° West 490 564 30,500 3,600 Level FlightAware UK
08:06AM 54.7010 -5.7150 302° West 469 540 32,000 -240 Climbing FlightAware
08:07AM 54.7319 -5.8003 302° West 488 562 30,400 -2,220 Descending FlightAware UK
08:07AM 54.7528 -5.8572 302° West 488 562 30,500 4,320 Climbing FlightAware UK
08:07AM 54.7500 -5.8470 302° West 463 533 32,000  Climbing FlightAware
08:07AM 54.7803 -5.9331 302° West 486 559 30,500 -2,400 Descending FlightAware UK
08:08AM 54.8008 -5.9901 302° West 486 559 30,500 4,500 Level FlightAware UK
08:08AM 54.7990 -5.9830 302° West 463 533 32,000  Climbing FlightAware
08:08AM 54.8215 -6.0472 302° West 484 557 30,500 -2,700 Descending FlightAware UK
08:08AM 54.8422 -6.1043 302° West 484 557 30,500 3,720 Level FlightAware UK
08:08AM 54.8440 -6.1070 302° West 465 535 32,000  Climbing FlightAware
08:09AM 54.8694 -6.1804 302° West 482 555 30,500 -2,520 Descending FlightAware UK
08:09AM 54.8901 -6.2379 302° West 480 552 30,500 4,080 Level FlightAware UK
08:09AM 54.8900 -6.2350 302° West 467 537 32,000  Climbing FlightAware
08:09AM 54.9178 -6.3150 302° West 486 559 30,500 -2,400 Descending FlightAware UK
08:10AM 54.9385 -6.3732 302° West 486 559 30,500 3,600 Level FlightAware UK
08:10AM 54.9430 -6.3840 302° West 470 541 32,000  Climbing FlightAware
08:10AM 54.9662 -6.4511 302° West 486 559 30,500 -2,580 Descending FlightAware UK
08:10AM 54.9869 -6.5097 302° West 486 559 30,500 3,900 Level FlightAware UK
08:10AM 54.9890 -6.5170 302° West 471 542 32,000  Climbing FlightAware
08:11AM 55.0146 -6.5880 302° West 486 559 30,500 -2,460 Descending FlightAware UK
08:11AM 55.0353 -6.6469 302° West 484 557 30,500 3,420 Level FlightAware UK
08:11AM 55.0390 -6.6570 302° West 473 544 32,000  Climbing FlightAware
08:11AM 55.0630 -6.7257 302° West 486 559 30,500 -2,700 Descending FlightAware UK
08:12AM 55.0840 -6.7848 302° West 486 559 30,500 3,720 Level FlightAware UK
08:12AM 55.0870 -6.7920 302° West 475 547 32,000  Climbing FlightAware
08:12AM 55.1116 -6.8642 302° West 490 564 30,500 -2,520 Descending FlightAware UK
08:12AM 55.1324 -6.9239 301° West 490 564 30,500 3,300 Level FlightAware UK
08:12AM 55.1400 -6.9440 301° West 475 547 32,000  Climbing FlightAware
08:13AM 55.1600 -7.0035 301° West 488 562 30,500 -2,760 Descending FlightAware UK
08:13AM 55.1807 -7.0631 301° West 486 559 30,500 3,600 Level FlightAware UK
08:13AM 55.1860 -7.0760 301° West 475 547 32,000  Climbing FlightAware
08:13AM 55.2082 -7.1425 301° West 484 557 30,500 -2,580 Descending FlightAware UK
08:14AM 55.2285 -7.2015 301° West 478 550 30,500 -180 Level FlightAware UK
08:14AM 55.2485 -7.2592 301° West 472 543 30,400  Descending FlightAware UK
08:14AM 55.2682 -7.3171 301° West 470 541 30,500 120 Climbing FlightAware UK
08:15AM 55.2882 -7.3756 301° West 472 543 30,500  Level FlightAware UK
08:15AM 55.3079 -7.4333 301° West 472 543 30,500  Level FlightAware UK
08:15AM 55.3279 -7.4920 301° West 472 543 30,500  Level FlightAware UK
08:16AM 55.3479 -7.5507 301° West 472 543 30,500 3,000 Level FlightAware UK
08:16AM 55.3560 -7.5720 301° West 470 541 32,000  Climbing FlightAware
08:16AM 55.3812 -7.6491 301° West 474 545 30,500 -2,700 Descending FlightAware UK
08:16AM 55.4012 -7.7084 301° West 470 541 30,400 4,080 Descending FlightAware UK
08:16AM 55.3990 -7.7000 301° West 471 542 32,000 240 Climbing FlightAware
08:17AM 55.4280 -7.7875 301° West 474 545 30,500 -2,400 Descending FlightAware UK
08:17AM 55.4480 -7.8471 301° West 476 548 30,500 4,500 Level FlightAware UK
08:17AM 55.4450 -7.8350 301° West 473 544 32,000  Climbing FlightAware
08:17AM 55.4679 -7.9068 301° West 474 545 30,500 -2,700 Descending FlightAware UK
08:18AM 55.4878 -7.9666 301° West 474 545 30,500 3,060 Level FlightAware UK
08:18AM 55.4940 -7.9840 301° West 472 543 32,000  Climbing FlightAware
08:18AM 55.5209 -8.0662 301° West 476 548 30,500 -2,460 Descending FlightAware UK
08:18AM 55.5408 -8.1261 300° West 476 548 30,500 4,260 Level FlightAware UK
08:18AM 55.5390 -8.1170 300° West 472 543 32,000  Climbing FlightAware
08:19AM 55.5607 -8.1859 300° West 476 548 30,500 -2,760 Descending FlightAware UK
08:19AM 55.5805 -8.2458 300° West 474 545 30,500 3,000 Level FlightAware UK
08:19AM 55.5880 -8.2670 300° West 467 537 32,000  Climbing FlightAware
08:20AM 55.6134 -8.3455 300° West 474 545 30,500 -2,520 Descending FlightAware UK
08:20AM 55.6331 -8.4055 300° West 476 548 30,500 4,080 Level FlightAware UK
08:20AM 55.6320 -8.4000 300° West 468 539 32,000  Climbing FlightAware
08:20AM 55.6592 -8.4857 300° West 474 545 30,500  Descending FlightAware UK
08:21AM 55.6750 -8.5330 300° West 467 537 32,000  Climbing FlightAware
08:21AM 55.6983 -8.6061 300° West 478 550 30,500 -2,880 Descending FlightAware UK
08:21AM 55.7178 -8.6664 300° West 476 548 30,400 3,060 Descending FlightAware UK
08:21AM 55.7240 -8.6840 300° West 466 536 32,000  Climbing FlightAware
08:22AM 55.7501 -8.7660 300° West 476 548 30,400 -2,640 Descending FlightAware UK
08:22AM 55.7697 -8.8260 300° West 476 548 30,400 4,560 Level FlightAware UK
08:22AM 55.7680 -8.8180 300° West 465 535 32,000  Climbing FlightAware
08:22AM 55.7890 -8.8860 300° West 476 548 30,400 -2,940 Descending FlightAware UK
08:23AM 55.8083 -8.9461 300° West 474 545 30,400 3,180 Level FlightAware UK
08:23AM 55.8150 -8.9670 300° West 464 534 32,000 1,800 Climbing FlightAware
08:23AM 55.8600 -9.1080 300° West 467 537 32,000  Level FlightAware
08:24AM 55.9030 -9.2420 300° West 467 537 32,000  Level FlightAware
08:25AM 55.9440 -9.3730 299° West 467 537 32,000  Level FlightAware
08:26AM 55.9960 -9.5380 299° West 466 536 32,000  Level FlightAware
08:26AM 56.0250 -9.6320 299° West 466 536 32,000  Level FlightAware
08:27AM 56.0870 -9.8340 299° West 467 537 32,000  Level FlightAware
08:28AM 56.1240 -9.9590 298° West 467 537 32,000  Level FlightAware
08:29AM 56.2370 -10.3260 304° West 462 532 32,000  Level FlightAware
08:30AM 56.2506 -10.2991 304° West  Level Estimated
08:30AM 56.2840 -10.4830 298° West 462 532 32,000  Level FlightAware
08:31AM 56.3350 -10.6520 299° West 462 532 32,000  Level FlightAware
08:32AM 56.3680 -10.7690 297° West 462 532 32,000  Level FlightAware
08:33AM 56.4090 -10.9150 297° West 462 532 32,000  Level FlightAware
08:33AM 56.4420 -11.0330 297° West 462 532 32,000  Level FlightAware
08:34AM 56.4750 -11.1500 297° West 462 532 32,000  Level FlightAware
08:35AM 56.5080 -11.2670 297° West 462 532 32,000  Level FlightAware
08:35AM 56.5410 -11.3840 297° West 462 532 32,000  Level FlightAware
08:36AM 56.5820 -11.5310 297° West 462 532 32,000  Level FlightAware
08:37AM 56.6150 -11.6490 297° West 462 532 32,000  Level FlightAware
08:37AM 56.6480 -11.7670 297° West 462 532 32,000  Level FlightAware
08:38AM 56.6810 -11.8850 297° West 462 532 32,000  Level FlightAware
08:39AM 56.7140 -12.0030 297° West 462 532 32,000  Level FlightAware
08:40AM 56.7550 -12.1500 297° West 462 532 32,000  Level FlightAware
08:40AM 56.7880 -12.2680 297° West 462 532 32,000  Level FlightAware
08:43AM 56.9415 -12.7201 302° West  Level Estimated
08:44AM 57.0078 -12.9178 302° West  Level Estimated
08:45AM 57.0737 -13.1162 301° West  Level Estimated
08:46AM 57.1393 -13.3154 301° West  Level Estimated
08:47AM 57.2046 -13.5152 301° West  Level Estimated
08:48AM 57.2696 -13.7157 301° West  Level Estimated
08:49AM 57.3343 -13.9170 301° West  Level Estimated
08:50AM 57.3986 -14.1189 301° West  Level Estimated
08:51AM 57.4626 -14.3216 300° West  Level Estimated
08:52AM 57.5263 -14.5250 300° West  Level Estimated
08:53AM 57.5897 -14.7290 300° West  Level Estimated
08:54AM 57.6527 -14.9338 300° West  Level Estimated
08:55AM 57.7154 -15.1393 300° West  Level Estimated
08:56AM 57.7778 -15.3456 300° West  Level Estimated
08:57AM 57.8398 -15.5525 299° West  Level Estimated
08:58AM 57.9015 -15.7601 299° West  Level Estimated
08:59AM 57.9629 -15.9685 299° West  Level Estimated
09:00AM 58.0239 -16.1775 299° West  Level Estimated
09:01AM 58.0845 -16.3873 299° West  Level Estimated
09:02AM 58.1449 -16.5978 299° West  Level Estimated
09:03AM 58.2048 -16.8090 298° West  Level Estimated
09:04AM 58.2645 -17.0209 298° West  Level Estimated
09:05AM 58.3237 -17.2336 298° West  Level Estimated
09:06AM 58.3826 -17.4469 298° West  Level Estimated
09:07AM 58.4412 -17.6609 298° West  Level Estimated
09:08AM 58.4994 -17.8757 297° West  Level Estimated
09:09AM 58.5572 -18.0912 297° West  Level Estimated
09:10AM 58.6147 -18.3074 297° West  Level Estimated
09:11AM 58.6718 -18.5243 297° West  Level Estimated
09:12AM 58.7286 -18.7418 297° West  Level Estimated
09:13AM 58.7850 -18.9602 297° West  Level Estimated
09:14AM 58.8410 -19.1792 296° West  Level Estimated
09:15AM 58.8966 -19.3989 296° West  Level Estimated
09:16AM 58.9519 -19.6193 296° West  Level Estimated
09:17AM 59.0068 -19.8405 296° West  Level Estimated
09:18AM 59.0613 -20.0623 296° West  Level Estimated
09:18AM 60.5860 -19.1580 295° West 505 581 32,000  Level FlightAware
09:19AM 59.1154 -20.2849 295° West  Level Estimated
09:19AM 60.6530 -19.2920 316° Northwest 507 583 32,000  Level FlightAware
09:20AM 60.7280 -19.4430 315° West 510 587 32,000  Level FlightAware
09:20AM 60.7940 -19.5750 316° Northwest 511 588 32,000  Level FlightAware
09:21AM 60.8620 -19.7150 315° West 513 590 32,000  Level FlightAware
09:22AM 60.9390 -19.8730 315° West 514 592 32,000  Level FlightAware
09:22AM 61.0060 -20.0120 315° West 515 593 32,000  Level FlightAware
09:23AM 61.0710 -20.1500 314° West 515 593 32,000  Level FlightAware
09:24AM 61.1490 -20.2980 318° Northwest 519 597 32,000  Level FlightAware
09:24AM 61.2190 -20.4410 316° Northwest 520 598 32,000  Level FlightAware
09:25AM 61.2960 -20.5990 315° West 521 600 32,000  Level FlightAware
09:26AM 61.3640 -20.7410 315° West 523 602 32,000  Level FlightAware
09:27AM 61.4400 -20.9010 315° West 524 603 32,000  Level FlightAware
09:27AM 61.5060 -21.0380 315° West 524 603 32,000  Level FlightAware
09:28AM 61.5780 -21.1890 315° West 526 605 32,000  Level FlightAware
09:29AM 61.6540 -21.3520 315° West 526 605 32,000  Level FlightAware
09:29AM 61.7230 -21.4980 315° West 524 603 32,000  Level FlightAware
09:30AM 61.7970 -21.6590 314° West 523 602 32,000  Level FlightAware
09:31AM 61.8640 -21.8050 314° West 523 602 32,000 480 Level FlightAware
09:31AM 61.9310 -21.9520 314° West 521 600 32,700 660 Climbing FlightAware
09:32AM 62.0050 -22.1170 314° West 518 596 33,000 180 Climbing FlightAware
09:33AM 62.0720 -22.2640 314° West 514 592 33,000  Level FlightAware
09:34AM 62.1450 -22.4280 314° West 512 589 33,000  Level FlightAware
09:34AM 62.2110 -22.5750 314° West 512 589 33,000  Level FlightAware
09:35AM 62.2760 -22.7260 313° West 511 588 33,000  Level FlightAware
09:36AM 62.3510 -22.8920 314° West 511 588 33,000  Level FlightAware
09:36AM 62.4150 -23.0410 313° West 512 589 33,000  Level FlightAware
09:37AM 62.4770 -23.1870 313° West 513 590 33,000  Level FlightAware
09:38AM 62.5500 -23.3560 313° West 513 590 33,000  Level FlightAware
09:38AM 62.6140 -23.5070 313° West 515 593 33,000  Level FlightAware
09:39AM 62.6860 -23.6790 312° West 516 594 33,000  Level FlightAware
09:40AM 62.7510 -23.8320 313° West 517 595 33,000  Level FlightAware
09:41AM 62.8250 -24.0100 312° West 518 596 33,000  Level FlightAware
09:41AM 62.8900 -24.1660 312° West 520 598 33,000  Level FlightAware
09:42AM 62.9530 -24.3190 312° West 521 600 33,000  Level FlightAware
09:43AM 63.0240 -24.4960 312° West 522 601 33,000  Level FlightAware
09:43AM 63.0910 -24.6590 312° West 524 603 33,000  Level FlightAware
09:44AM 63.1620 -24.8350 312° West 524 603 33,000  Level FlightAware
09:45AM 63.2260 -25.0000 311° West 525 604 33,000  Level FlightAware
09:45AM 63.2890 -25.1590 311° West 525 604 33,000  Level FlightAware
09:46AM 63.3550 -25.3310 311° West 526 605 33,000  Level FlightAware
09:47AM 63.4080 -25.4720 310° West 526 605 33,000  Level FlightAware
09:48AM 63.4970 -25.6940 312° West 524 603 33,000  Level FlightAware
09:48AM 63.5590 -25.8540 311° West 524 603 33,000  Level FlightAware
09:49AM 63.6230 -26.0240 310° West 526 605 33,000  Level FlightAware
09:50AM 63.6940 -26.2120 310° West 525 604 33,000  Level FlightAware
09:50AM 63.7570 -26.3820 310° West 523 602 33,000  Level FlightAware
09:51AM 63.8180 -26.5450 310° West 522 601 33,000  Level FlightAware
09:52AM 63.8700 -26.6910 309° West 522 601 33,000  Level FlightAware
09:52AM 63.9570 -26.9240 310° West 522 601 33,000  Level FlightAware
09:53AM 64.0150 -27.0840 310° West 521 600 33,000  Level FlightAware
09:54AM 64.0720 -27.2450 309° West 520 598 33,000  Level FlightAware
09:55AM 64.1500 -27.4620 310° West 520 598 33,000  Level FlightAware
09:55AM 64.2140 -27.6440 309° West 520 598 33,000  Level FlightAware
09:56AM 64.2660 -27.7900 309° West 520 598 33,000  Level FlightAware
09:57AM 64.3170 -27.9370 309° West 520 598 33,000  Level FlightAware
09:57AM 64.3690 -28.0840 309° West 520 598 33,000  Level FlightAware
09:58AM 64.4200 -28.2310 309° West 520 598 33,000  Level FlightAware
09:59AM 64.4840 -28.4150 309° West 520 598 33,000  Level FlightAware
10:00AM 64.5360 -28.5630 309° West 520 598 33,000  Level FlightAware
10:00AM 64.5870 -28.7110 309° West 520 598 33,000  Level FlightAware
10:01AM 64.6390 -28.8590 309° West 520 598 33,000  Level FlightAware
10:02AM 64.6900 -29.0080 309° West 520 598 33,000  Level FlightAware
10:02AM 64.7540 -29.1940 309° West 520 598 33,000  Level FlightAware
10:03AM 64.8060 -29.3430 309° West 520 598 33,000  Level FlightAware
10:04AM 64.8570 -29.4930 309° West 520 598 33,000  Level FlightAware
10:06AM 64.9126 -29.9876 285° West  Level Estimated
10:07AM 64.9442 -30.2766 285° West  Level Estimated
10:08AM 64.9752 -30.5663 284° West  Level Estimated
10:09AM 65.0057 -30.8567 284° West  Level Estimated
10:10AM 65.0356 -31.1478 284° West  Level Estimated
10:11AM 65.0650 -31.4394 284° West  Level Estimated
10:12AM 65.0938 -31.7318 283° West  Level Estimated
10:13AM 65.1220 -32.0247 283° West  Level Estimated
10:14AM 65.1496 -32.3183 283° West  Level Estimated
10:15AM 65.1767 -32.6125 282° West  Level Estimated
10:16AM 65.2032 -32.9072 282° West  Level Estimated
10:17AM 65.2291 -33.2026 282° West  Level Estimated
10:18AM 65.2544 -33.4985 282° West  Level Estimated
10:19AM 65.2792 -33.7950 281° West  Level Estimated
10:20AM 65.3033 -34.0920 281° West  Level Estimated
10:21AM 65.3269 -34.3896 281° West  Level Estimated
10:22AM 65.3499 -34.6877 281° West  Level Estimated
10:23AM 65.3723 -34.9863 280° West  Level Estimated
10:24AM 65.3941 -35.2855 280° West  Level Estimated
10:25AM 65.4153 -35.5851 280° West  Level Estimated
10:26AM 65.4360 -35.8852 280° West  Level Estimated
10:27AM 65.4560 -36.1857 279° West  Level Estimated
10:28AM 65.4754 -36.4867 279° West  Level Estimated
10:29AM 65.4942 -36.7882 279° West  Level Estimated
10:30AM 65.5125 -37.0901 278° West  Level Estimated
10:31AM 65.5301 -37.3924 278° West  Level Estimated
10:32AM 65.5472 -37.6951 278° West  Level Estimated
10:33AM 65.5636 -37.9981 278° West  Level Estimated
10:34AM 65.5794 -38.3016 277° West  Level Estimated
10:35AM 65.5946 -38.6054 277° West  Level Estimated
10:36AM 65.6093 -38.9096 277° West  Level Estimated
10:37AM 65.6233 -39.2141 276° West  Level Estimated
10:38AM 65.6367 -39.5190 276° West  Level Estimated
10:39AM 65.6494 -39.8241 276° West  Level Estimated
10:40AM 65.6616 -40.1295 276° West  Level Estimated
10:41AM 65.6732 -40.4352 275° West  Level Estimated
10:42AM 65.6841 -40.7412 275° West  Level Estimated
10:43AM 65.6945 -41.0474 275° West  Level Estimated
10:44AM 65.7042 -41.3539 275° West  Level Estimated
10:45AM 65.7133 -41.6606 274° West  Level Estimated
10:46AM 65.7218 -41.9675 274° West  Level Estimated
10:47AM 65.7297 -42.2746 274° West  Level Estimated
10:48AM 65.7369 -42.5819 273° West  Level Estimated
10:49AM 65.7436 -42.8893 273° West  Level Estimated
10:50AM 65.7496 -43.1969 273° West  Level Estimated
10:51AM 65.7550 -43.5046 273° West  Level Estimated
10:52AM 65.7598 -43.8125 272° West  Level Estimated
10:53AM 65.7639 -44.1204 272° West  Level Estimated
10:54AM 65.7674 -44.4285 272° West  Level Estimated
10:55AM 65.7704 -44.7366 271° West  Level Estimated
10:56AM 65.7727 -45.0448 271° West  Level Estimated
10:57AM 65.7744 -45.3530 271° West  Level Estimated
10:58AM 65.7754 -45.6613 271° West  Level Estimated
10:59AM 65.7758 -45.9696 270° West  Level Estimated
11:00AM 65.7757 -46.2779 270° West  Level Estimated
11:01AM 65.7749 -46.5861 270° West  Level Estimated
11:02AM 65.7735 -46.8944 269° West  Level Estimated
11:03AM 65.7714 -47.2026 269° West  Level Estimated
11:04AM 65.7688 -47.5107 269° West  Level Estimated
11:05AM 65.7655 -47.8188 269° West  Level Estimated
11:06AM 65.7616 -48.1268 268° West  Level Estimated
11:07AM 65.7570 -48.4347 268° West  Level Estimated
11:08AM 65.7519 -48.7425 268° West  Level Estimated
11:09AM 65.7461 -49.0501 268° West  Level Estimated
11:10AM 65.7398 -49.3576 267° West  Level Estimated
11:11AM 65.7328 -49.6650 267° West  Level Estimated
11:12AM 65.7252 -49.9722 267° West  Level Estimated
11:13AM 65.7169 -50.2791 266° West  Level Estimated
11:14AM 65.7081 -50.5859 266° West  Level Estimated
11:15AM 65.6986 -50.8925 266° West  Level Estimated
11:16AM 65.6886 -51.1988 266° West  Level Estimated
11:16AM 68.0333 -53.4000 264° West 500 575 34,000  Level Edmonton Center
11:17AM 65.6779 -51.5049 265° West  Level Estimated
11:17AM 68.0333 -53.7667 270° West 500 575 34,000  Level Edmonton Center
11:18AM 65.6666 -51.8107 265° West  Level Estimated
11:18AM 68.0500 -54.1333 277° West 500 575 34,000  Level Edmonton Center
11:19AM 65.6547 -52.1163 265° West  Level Estimated
11:19AM 68.0500 -54.5000 270° West 500 575 34,000  Level Edmonton Center
11:20AM 65.6421 -52.4216 264° West  Level Estimated
11:20AM 68.0333 -54.8500 263° West 500 575 34,000  Level Edmonton Center
11:21AM 65.6290 -52.7265 264° West  Level Estimated
11:21AM 68.0333 -55.2167 270° West 500 575 34,000  Level Edmonton Center
11:22AM 68.0333 -55.5833 270° West 490 564 34,000  Level Edmonton Center
11:23AM 68.0333 -55.9500 270° West 490 564 34,000  Level Edmonton Center
11:24AM 68.0333 -56.3333 270° West 500 575 34,000  Level Edmonton Center
11:25AM 68.0167 -56.6667 263° West 490 564 34,000  Level Edmonton Center
11:26AM 68.0333 -57.0167 277° West 490 564 34,000  Level Edmonton Center
11:27AM 68.0333 -57.3833 270° West 490 564 34,000  Level Edmonton Center
11:28AM 68.0333 -57.7500 270° West 490 564 34,000  Level Edmonton Center
11:29AM 68.0167 -58.0833 263° West 490 564 34,000  Level Edmonton Center
11:30AM 68.0000 -58.4667 264° West 490 564 34,000  Level Edmonton Center
11:31AM 68.0000 -58.8333 270° West 490 564 34,000  Level Edmonton Center
11:32AM 67.9833 -59.2000 263° West 500 575 34,000  Level Edmonton Center
11:33AM 67.9667 -59.5333 263° West 490 564 34,000  Level Edmonton Center
11:34AM 67.9667 -59.8833 270° West 490 564 34,000  Level Edmonton Center
11:35AM 67.9667 -60.2500 270° West 490 564 34,000  Level Edmonton Center
11:36AM 67.9500 -60.6167 263° West 490 564 34,000  Level Edmonton Center
11:37AM 67.9500 -60.9667 270° West 500 575 34,000  Level Edmonton Center
11:38AM 67.9333 -61.3333 263° West 490 564 34,100 660 Climbing Edmonton Center
11:39AM 67.9333 -61.7000 270° West 500 575 35,400 900 Climbing Edmonton Center
11:40AM 67.9333 -62.0500 270° West 490 564 36,000 300 Climbing Edmonton Center
11:41AM 67.9167 -62.4167 263° West 500 575 36,000  Level Edmonton Center
11:42AM 67.9000 -62.7833 263° West 500 575 36,000  Level Edmonton Center
11:43AM 67.8833 -63.1500 263° West 500 575 36,000  Level Edmonton Center
11:44AM 67.8667 -63.5000 263° West 500 575 36,000  Level Edmonton Center
11:45AM 67.8500 -63.8667 263° West 500 575 36,000  Level Edmonton Center
11:46AM 67.8333 -64.2333 263° West 500 575 36,000  Level Edmonton Center
11:47AM 67.8333 -64.5833 270° West 490 564 36,000  Level Edmonton Center
11:48AM 67.8167 -64.9500 263° West 490 564 36,000  Level Edmonton Center
11:49AM 67.7833 -65.2667 255° West 490 564 36,000  Level Edmonton Center
11:50AM 67.7667 -65.6167 263° West 490 564 36,000  Level Edmonton Center
11:51AM 67.7500 -65.9833 263° West 490 564 36,000  Level Edmonton Center
11:52AM 67.7167 -66.3500 257° West 490 564 36,000  Level Edmonton Center
11:53AM 67.7167 -66.6833 270° West 490 564 36,000  Level Edmonton Center
11:54AM 67.6833 -67.0500 257° West 480 552 36,000  Level Edmonton Center
11:55AM 67.6667 -67.3833 263° West 490 564 36,000  Level Edmonton Center
11:56AM 67.6500 -67.7500 263° West 490 564 36,000  Level Edmonton Center
11:57AM 67.6000 -68.0833 249° West 480 552 36,000  Level Edmonton Center
11:58AM 67.6000 -68.4167 270° West 490 564 36,000  Level Edmonton Center
11:59AM 67.5667 -68.7667 256° West 490 564 36,000  Level Edmonton Center
12:00PM 67.5500 -69.1167 263° West 490 564 36,000  Level Edmonton Center
12:01PM 67.5167 -69.4667 256° West 490 564 36,000  Level Edmonton Center
12:02PM 67.4833 -69.8333 257° West 490 564 36,000  Level Edmonton Center
12:03PM 67.4500 -70.1500 255° West 490 564 36,000  Level Edmonton Center
12:04PM 67.4167 -70.5000 256° West 490 564 36,000  Level Edmonton Center
12:05PM 67.3667 -70.8333 249° West 490 564 36,000  Level Edmonton Center
12:06PM 67.3333 -71.1833 256° West 490 564 36,000  Level Edmonton Center
12:07PM 67.2833 -71.5000 248° West 490 564 36,000  Level Edmonton Center
12:08PM 67.2500 -71.8500 256° West 490 564 36,000  Level Edmonton Center
12:09PM 67.2000 -72.1667 248° West 490 564 36,000  Level Edmonton Center
12:10PM 67.1667 -72.4833 255° West 490 564 36,000  Level Edmonton Center
12:11PM 67.1167 -72.8333 250° West 490 564 36,000  Level Edmonton Center
12:12PM 67.0833 -73.1333 254° West 490 564 36,000  Level Edmonton Center
12:13PM 67.0333 -73.4833 250° West 490 564 36,000  Level Edmonton Center
12:14PM 66.9833 -73.8000 248° West 480 552 36,000  Level Edmonton Center
12:15PM 66.9500 -74.1500 256° West 490 564 36,000  Level Edmonton Center
12:16PM 66.9000 -74.4500 247° West 490 564 36,000  Level Edmonton Center
12:17PM 66.8500 -74.8000 250° West 490 564 36,000  Level Edmonton Center
12:18PM 66.8000 -75.1000 247° West 490 564 36,000  Level Edmonton Center
12:19PM 66.7500 -75.4333 249° West 490 564 36,000  Level Edmonton Center
12:20PM 66.7000 -75.7333 247° West 490 564 36,000  Level Edmonton Center
12:21PM 66.6500 -76.0333 247° West 480 552 36,000  Level Edmonton Center
12:22PM 66.6000 -76.3833 250° West 480 552 36,000  Level Edmonton Center
12:23PM 66.5500 -76.6833 247° West 480 552 36,000  Level Edmonton Center
12:24PM 66.5000 -77.0167 250° West 480 552 36,000  Level Edmonton Center
12:25PM 66.4667 -77.2833 253° West 480 552 36,000  Level Edmonton Center
12:27PM 66.3993 -77.7000 248° West  Level FlightAware Approximate
12:27PM 66.3500 -77.8833 248° West 470 541 36,000  Level Edmonton Center
12:28PM 66.3000 -78.2167 250° West 480 552 36,000  Level Edmonton Center
12:29PM 66.2333 -78.5000 240° Southwest 480 552 36,000  Level Edmonton Center
12:30PM 66.1833 -78.7833 247° West 480 552 36,000  Level Edmonton Center
12:31PM 66.1500 -79.1000 256° West 480 552 36,000  Level Edmonton Center
12:32PM 66.0833 -79.3833 240° Southwest 470 541 36,000  Level Edmonton Center
12:33PM 66.0333 -79.6833 248° West 480 552 36,000  Level Edmonton Center
12:34PM 65.9667 -80.0000 243° Southwest 480 552 36,000  Level Edmonton Center
12:35PM 65.9167 -80.2833 247° West 480 552 36,000  Level Edmonton Center
12:36PM 65.8500 -80.5667 240° Southwest 480 552 36,000  Level Edmonton Center
12:37PM 65.7833 -80.8833 243° Southwest 480 552 36,000  Level Edmonton Center
12:38PM 65.7333 -81.1667 247° West 480 552 36,000  Level Edmonton Center
12:39PM 65.6667 -81.4500 240° Southwest 480 552 36,000  Level Edmonton Center
12:40PM 65.6000 -81.7500 242° Southwest 490 564 36,000  Level Edmonton Center
12:41PM 65.5500 -82.0333 247° West 480 552 36,000  Level Edmonton Center
12:42PM 65.4833 -82.3000 239° Southwest 480 552 36,000  Level Edmonton Center
12:43PM 65.4167 -82.6167 243° Southwest 490 564 36,000  Level Edmonton Center
12:44PM 65.3500 -82.8833 239° Southwest 480 552 36,000  Level Edmonton Center
12:45PM 65.2833 -83.2000 243° Southwest 480 552 36,000  Level Edmonton Center
12:46PM 65.2333 -83.4500 245° Southwest 480 552 36,000  Level Edmonton Center
12:47PM 65.1667 -83.7167 239° Southwest 470 541 36,000  Level Edmonton Center
12:48PM 65.1000 -83.9833 239° Southwest 480 552 36,000  Level Edmonton Center
12:49PM 65.0333 -84.3000 244° Southwest 470 541 36,000  Level Edmonton Center
12:50PM 64.9667 -84.5500 238° Southwest 470 541 36,000  Level Edmonton Center
12:51PM 64.9000 -84.8500 242° Southwest 480 552 36,000  Level Edmonton Center
12:52PM 64.8333 -85.1167 240° Southwest 470 541 36,000  Level Edmonton Center
12:53PM 64.7667 -85.3833 240° Southwest 480 552 36,000  Level Edmonton Center
12:54PM 64.6833 -85.6333 232° Southwest 480 552 36,000  Level Edmonton Center
12:55PM 64.6167 -85.9333 243° Southwest 480 552 36,000  Level Edmonton Center
12:56PM 64.5500 -86.1833 238° Southwest 480 552 36,000  Level Edmonton Center
12:57PM 64.4833 -86.4500 240° Southwest 480 552 36,000  Level Edmonton Center
12:58PM 64.4167 -86.7333 242° Southwest 480 552 36,000  Level Edmonton Center
12:59PM 64.3333 -86.9833 232° Southwest 480 552 36,000  Level Edmonton Center
01:00PM 64.2833 -87.2333 245° Southwest 480 552 36,000  Level Edmonton Center
01:01PM 64.2167 -87.5167 242° Southwest 480 552 36,000  Level Edmonton Center
01:02PM 64.1333 -87.7667 233° Southwest 480 552 36,000  Level Edmonton Center
01:03PM 64.0500 -88.0167 233° Southwest 480 552 36,000  Level Edmonton Center
01:04PM 63.9833 -88.2500 237° Southwest 480 552 36,000  Level Edmonton Center
01:05PM 63.9167 -88.5333 242° Southwest 480 552 36,000  Level Edmonton Center
01:06PM 63.8333 -88.7833 233° Southwest 480 552 36,000  Level Edmonton Center
01:07PM 63.7500 -89.0167 231° Southwest 480 552 36,000  Level Edmonton Center
01:08PM 63.7000 -89.2833 247° West 480 552 36,000  Level Edmonton Center
01:09PM 63.6167 -89.5333 233° Southwest 480 552 36,000  Level Edmonton Center
01:10PM 63.5333 -89.7667 231° Southwest 480 552 36,000 180 Level Edmonton Center
01:11PM 63.4667 -90.0000 237° Southwest 470 541 36,400 780 Climbing Edmonton Center
01:12PM 63.3667 -90.2500 228° Southwest 470 541 37,600 780 Climbing Edmonton Center
01:13PM 63.2833 -90.4833 232° Southwest 480 552 38,000 180 Climbing Edmonton Center
01:14PM 63.2000 -90.7167 232° Southwest 480 552 38,000  Level Edmonton Center
01:15PM 63.1000 -90.9500 227° Southwest 480 552 38,000  Level Edmonton Center
01:16PM 63.0167 -91.1500 227° Southwest 480 552 38,000  Level Edmonton Center
01:17PM 62.9333 -91.3833 232° Southwest 480 552 38,000  Level Edmonton Center
01:18PM 62.8500 -91.6000 230° Southwest 480 552 38,000  Level Edmonton Center
01:19PM 62.7500 -91.8500 229° Southwest 480 552 38,000  Level Edmonton Center
01:20PM 62.6667 -92.0667 230° Southwest 480 552 38,000  Level Edmonton Center
01:21PM 62.5667 -92.3000 227° Southwest 480 552 38,000  Level Edmonton Center
01:22PM 62.4833 -92.5167 230° Southwest 480 552 38,000  Level Edmonton Center
01:23PM 62.4000 -92.7333 230° Southwest 480 552 38,000  Level Edmonton Center
01:24PM 62.2833 -92.9333 219° Southwest 480 552 38,000  Level Edmonton Center
01:25PM 62.2000 -93.1500 231° Southwest 480 552 38,000  Level Edmonton Center
01:26PM 62.1167 -93.3667 231° Southwest 480 552 38,000  Level Edmonton Center
01:27PM 62.0167 -93.5833 226° Southwest 480 552 38,000  Level Edmonton Center
01:28PM 61.9333 -93.8000 231° Southwest 480 552 38,000  Level Edmonton Center
01:29PM 61.8333 -94.0167 226° Southwest 480 552 38,000  Level Edmonton Center
01:30PM 61.7500 -94.2000 226° Southwest 480 552 38,000  Level Edmonton Center
01:31PM 61.6500 -94.4167 226° Southwest 480 552 38,000  Level Edmonton Center
01:32PM 61.5500 -94.6333 226° Southwest 480 552 38,000  Level Edmonton Center
01:33PM 61.4667 -94.8333 229° Southwest 480 552 38,000  Level Edmonton Center
01:34PM 61.3667 -95.0500 226° Southwest 480 552 38,000  Level Edmonton Center
01:35PM 61.2667 -95.2500 224° Southwest 480 552 38,000  Level Edmonton Center
01:36PM 61.1833 -95.4500 229° Southwest 490 564 38,000  Level Edmonton Center
01:37PM 61.0833 -95.6333 222° Southwest 480 552 38,000  Level Edmonton Center
01:38PM 60.9833 -95.8333 224° Southwest 490 564 38,000  Level Edmonton Center
01:39PM 60.9000 -96.0333 229° Southwest 490 564 38,000  Level Edmonton Center
01:40PM 60.8000 -96.2333 224° Southwest 490 564 38,000  Level Edmonton Center
01:41PM 60.7000 -96.4333 224° Southwest 490 564 38,000  Level Edmonton Center
01:42PM 60.6000 -96.6500 227° Southwest 490 564 38,000  Level Edmonton Center
01:43PM 60.5000 -96.8333 222° Southwest 490 564 38,000  Level Edmonton Center
01:44PM 60.4000 -97.0000 219° Southwest 490 564 38,000  Level Edmonton Center
01:45PM 60.3000 -97.2000 225° Southwest 490 564 38,000  Level Edmonton Center
01:46PM 60.2000 -97.4000 225° Southwest 490 564 38,000  Level Edmonton Center
01:47PM 60.1000 -97.5833 222° Southwest 490 564 38,000  Level Edmonton Center
01:48PM 60.0000 -97.7833 225° Southwest 490 564 38,000  Level Edmonton Center
01:49PM 59.8833 -97.9833 221° Southwest 490 564 38,000  Level Edmonton Center
01:50PM 59.8000 -98.1667 228° Southwest 490 564 38,000  Level Edmonton Center
01:51PM 59.7000 -98.3500 223° Southwest 490 564 38,000  Level Edmonton Center
01:52PM 59.6000 -98.5500 225° Southwest 490 564 38,000  Level Edmonton Center
01:53PM 59.5000 -98.7333 223° Southwest 490 564 38,000  Level Edmonton Center
01:54PM 59.4000 -98.9167 223° Southwest 490 564 38,000  Level Edmonton Center
01:55PM 59.3000 -99.1000 223° Southwest 490 564 38,000  Level Edmonton Center
01:56PM 59.1833 -99.2833 219° Southwest 490 564 38,000  Level Edmonton Center
01:57PM 59.0833 -99.4333 218° Southwest 490 564 38,000  Level Edmonton Center
01:58PM 58.9667 -99.5833 214° Southwest 500 575 38,000  Level Edmonton Center
01:59PM 58.8500 -99.7333 214° Southwest 500 575 38,000  Level Edmonton Center
02:00PM 58.7333 -99.8833 214° Southwest 490 564 38,000  Level Edmonton Center
02:01PM 58.6000 -100.0333 210° Southwest 500 575 38,000  Level Edmonton Center
02:02PM 58.5000 -100.1833 218° Southwest 500 575 38,000  Level Edmonton Center
02:03PM 58.3833 -100.3333 214° Southwest 500 575 38,000  Level Edmonton Center
02:04PM 58.2667 -100.4667 211° Southwest 500 575 38,000  Level Edmonton Center
02:05PM 58.1833 -100.6333 227° Southwest 510 587 38,000  Level Winnipeg Center
02:06PM 58.0500 -100.7833 211° Southwest 510 587 38,000  Level Winnipeg Center
02:07PM 57.9500 -100.9000 212° Southwest 490 564 38,000  Level Winnipeg Center
02:08PM 57.8333 -101.0667 217° Southwest 510 587 38,000  Level Winnipeg Center
02:09PM 57.7167 -101.1833 208° Southwest 510 587 38,000  Level Winnipeg Center
02:10PM 57.5833 -101.3333 211° Southwest 500 575 38,000  Level Winnipeg Center
02:11PM 57.4833 -101.4667 216° Southwest 500 575 38,000  Level Winnipeg Center
02:12PM 57.3500 -101.6167 211° Southwest 500 575 38,000  Level Winnipeg Center
02:13PM 57.2333 -101.7500 212° Southwest 500 575 38,000  Level Winnipeg Center
02:14PM 57.1167 -101.8833 212° Southwest 500 575 38,000  Level Winnipeg Center
02:15PM 57.0000 -102.0333 215° Southwest 510 587 38,000  Level Winnipeg Center
02:16PM 56.8833 -102.1667 212° Southwest 510 587 38,000  Level Winnipeg Center
02:17PM 56.7500 -102.3000 209° Southwest 510 587 38,000  Level Winnipeg Center
02:18PM 56.6167 -102.4333 209° Southwest 510 587 38,000  Level Winnipeg Center
02:19PM 56.5167 -102.5500 213° Southwest 510 587 38,000  Level Winnipeg Center
02:20PM 56.4000 -102.6833 212° Southwest 510 587 38,000  Level Winnipeg Center
02:21PM 56.2667 -102.8167 209° Southwest 500 575 38,000  Level Winnipeg Center
02:22PM 56.1500 -102.9500 212° Southwest 500 575 38,000  Level Winnipeg Center
02:23PM 56.0167 -103.0667 206° Southwest 510 587 38,000  Level Winnipeg Center
02:24PM 55.9000 -103.2000 213° Southwest 510 587 38,000  Level Winnipeg Center
02:25PM 55.7833 -103.3000 206° Southwest 510 587 38,000  Level Winnipeg Center
02:26PM 55.6500 -103.4333 209° Southwest 500 575 38,000  Level Winnipeg Center
02:27PM 55.5500 -103.5667 217° Southwest 500 575 38,000  Level Winnipeg Center
02:28PM 55.4167 -103.6667 203° Southwest 500 575 38,000  Level Winnipeg Center
02:29PM 55.2833 -103.7833 206° Southwest 500 575 38,000  Level Winnipeg Center
02:30PM 55.1500 -103.9167 210° Southwest 510 587 38,000  Level Winnipeg Center
02:31PM 55.0500 -104.0333 214° Southwest 510 587 38,000  Level Winnipeg Center
02:32PM 54.9333 -104.1333 206° Southwest 510 587 38,000  Level Winnipeg Center
02:33PM 54.8000 -104.2667 210° Southwest 510 587 38,000  Level Winnipeg Center
02:34PM 54.6833 -104.3833 210° Southwest 510 587 38,000  Level Winnipeg Center
02:35PM 54.5500 -104.5000 207° Southwest 510 587 38,000  Level Winnipeg Center
02:36PM 54.4167 -104.6167 207° Southwest 510 587 38,000  Level Winnipeg Center
02:37PM 54.2833 -104.7167 204° Southwest 510 587 38,000  Level Winnipeg Center
02:38PM 54.1667 -104.8333 210° Southwest 510 587 38,000  Level Winnipeg Center
02:39PM 54.0333 -104.9500 207° Southwest 520 598 38,000  Level Winnipeg Center
02:40PM 53.9167 -105.0833 214° Southwest 520 598 38,000  Level Winnipeg Center
02:41PM 53.7833 -105.1667 200° South 510 587 38,000  Level Winnipeg Center
02:42PM 53.6667 -105.3167 217° Southwest 510 587 38,000  Level Winnipeg Center
02:43PM 53.5333 -105.4000 200° South 510 587 38,000  Level Winnipeg Center
02:44PM 53.4167 -105.5167 211° Southwest 500 575 38,000  Level Winnipeg Center
02:45PM 53.2833 -105.6333 208° Southwest 500 575 38,000  Level Winnipeg Center
02:46PM 53.1667 -105.7167 203° Southwest 500 575 38,000  Level Winnipeg Center
02:47PM 53.0500 -105.8667 218° Southwest 490 564 38,000  Level Winnipeg Center
02:48PM 52.9333 -105.9833 211° Southwest 500 575 38,000  Level Winnipeg Center
02:49PM 52.8167 -106.1000 211° Southwest 500 575 38,000  Level Winnipeg Center
02:50PM 52.7000 -106.2167 211° Southwest 500 575 38,000  Level Winnipeg Center
02:51PM 52.5667 -106.3500 211° Southwest 500 575 38,000  Level Winnipeg Center
02:52PM 52.4500 -106.4667 211° Southwest 500 575 38,000  Level Winnipeg Center
02:53PM 52.3333 -106.5667 208° Southwest 500 575 38,000  Level Winnipeg Center
02:59PM 51.6030 -107.0270 208° Southwest 514 592 38,000  Level FlightAware
03:00PM 51.4740 -107.0940 198° South 513 590 38,000  Level FlightAware
03:01PM 51.3830 -107.1410 198° South 514 592 38,000  Level FlightAware
03:01PM 51.3010 -107.1830 198° South 515 593 38,000  Level FlightAware
03:02PM 51.1940 -107.2380 198° South 514 592 38,000  Level FlightAware
03:03PM 51.0960 -107.2890 198° South 513 590 38,000  Level FlightAware
03:03PM 51.0020 -107.3360 197° South 512 589 38,000  Level FlightAware
03:04PM 50.9060 -107.3860 198° South 511 588 38,000  Level FlightAware
03:05PM 50.8270 -107.4250 197° South 511 588 38,000  Level FlightAware
03:05PM 50.7240 -107.4780 198° South 512 589 38,000  Level FlightAware
03:06PM 50.6480 -107.5160 198° South 509 586 38,000  Level FlightAware
03:07PM 50.5380 -107.5710 198° South 508 585 38,000  Level FlightAware
03:07PM 50.4620 -107.6090 198° South 506 582 38,000  Level FlightAware
03:08PM 50.3530 -107.6630 198° South 505 581 38,000  Level FlightAware
03:09PM 50.2760 -107.7010 198° South 504 580 38,000  Level FlightAware
03:10PM 50.1710 -107.7510 197° South 505 581 38,000  Level FlightAware
03:11PM 50.0760 -107.7960 197° South 505 581 38,000  Level FlightAware
03:11PM 50.0000 -107.8320 197° South 505 581 38,000  Level FlightAware
03:12PM 49.9240 -107.8680 197° South 505 581 38,000  Level FlightAware
03:13PM 49.8480 -107.9040 197° South 505 581 38,000  Level FlightAware
03:13PM 49.7530 -107.9490 197° South 505 581 38,000  Level FlightAware
03:14PM 49.6770 -107.9850 197° South 505 581 38,000  Level FlightAware
03:15PM 49.6010 -108.0210 197° South 505 581 38,000  Level FlightAware
03:15PM 49.5260 -108.0570 197° South 505 581 38,000  Level FlightAware
03:16PM 49.4500 -108.0930 197° South 505 581 38,000  Level FlightAware
03:17PM 49.3740 -108.1280 197° South 505 581 38,000  Level FlightAware
03:18PM 49.2790 -108.1730 197° South 505 581 38,000  Level FlightAware
03:18PM 49.2030 -108.2090 197° South 505 581 38,000  Level FlightAware
03:19PM 49.1270 -108.2440 197° South 505 581 38,000 -120 Level FlightAware
03:19PM 48.8406 -108.3772 197° South 507 583 37,900  Descending Salt Lake Center
03:20PM 48.7058 -108.4375 196° South 506 582 38,000  Climbing Salt Lake Center
03:21PM 48.5450 -108.5111 197° South 504 580 38,000  Level Salt Lake Center
03:22PM 48.4108 -108.5717 197° South 504 580 38,000  Level Salt Lake Center
03:23PM 48.2761 -108.6311 196° South 505 581 38,000  Level Salt Lake Center
03:24PM 48.1419 -108.6894 196° South 504 580 38,000  Level Salt Lake Center
03:25PM 48.0117 -108.7494 197° South 496 571 38,000  Level Salt Lake Center
03:26PM 47.8789 -108.8081 196° South 497 572 38,000  Level Salt Lake Center
03:28PM 47.7453 -108.8667 196° South 500 575 38,000  Level Salt Lake Center
03:29PM 47.5853 -108.9356 196° South 499 574 38,000  Level Salt Lake Center
03:30PM 47.4522 -108.9933 196° South 498 573 38,000  Level Salt Lake Center
03:31PM 47.3194 -109.0492 196° South 498 573 38,000 -60 Level Salt Lake Center
03:32PM 47.1889 -109.1058 196° South 492 566 37,900  Descending Salt Lake Center
03:33PM 47.0581 -109.1597 196° South 489 563 38,000  Climbing Salt Lake Center
03:34PM 46.9236 -109.2164 196° South 496 571 38,000  Level Salt Lake Center
03:35PM 46.7647 -109.2819 196° South 497 572 38,000  Level Salt Lake Center
03:36PM 46.6225 -109.3436 197° South 499 574 38,000  Level Salt Lake Center
03:37PM 46.4964 -109.3958 196° South 493 567 38,000  Level Salt Lake Center
03:38PM 46.3708 -109.4469 196° South 491 565 38,000  Level Salt Lake Center
03:39PM 46.2231 -109.5089 196° South 495 570 38,000  Level Salt Lake Center
03:40PM 46.0969 -109.5608 196° South 493 567 38,000  Level Salt Lake Center
03:41PM 45.9500 -109.6211 196° South 493 567 38,000  Level Salt Lake Center
03:42PM 45.8239 -109.6722 196° South 494 568 38,000  Level Salt Lake Center
03:43PM 45.6764 -109.7328 196° South 493 567 38,000  Level Salt Lake Center
03:44PM 45.5508 -109.7833 196° South 492 566 38,000  Level Salt Lake Center
03:45PM 45.4028 -109.8425 196° South 495 570 38,000  Level Salt Lake Center
03:46PM 45.2767 -109.8925 196° South 494 568 38,000  Level Salt Lake Center
03:47PM 45.1297 -109.9511 196° South 493 567 38,000  Level Salt Lake Center
03:48PM 45.0089 -110.0081 198° South 494 568 38,000  Level Salt Lake Center
03:49PM 44.8658 -110.0844 201° Southwest 491 565 38,000  Level Salt Lake Center
03:50PM 44.7436 -110.1506 201° Southwest 489 563 38,000  Level Salt Lake Center
03:51PM 44.6214 -110.2150 201° Southwest 488 562 38,000  Level Salt Lake Center
03:52PM 44.4794 -110.2914 201° Southwest 487 560 38,000  Level Salt Lake Center
03:53PM 44.3550 -110.3544 200° South 493 567 38,000  Level Salt Lake Center
03:54PM 44.2119 -110.4300 201° Southwest 492 566 38,000  Level Salt Lake Center
03:55PM 44.0889 -110.4928 200° South 490 564 38,000  Level Salt Lake Center
03:56PM 43.9469 -110.5669 201° Southwest 487 560 38,000  Level Salt Lake Center
03:57PM 43.8231 -110.6311 200° South 492 566 38,000  Level Salt Lake Center
03:58PM 43.7003 -110.6936 200° South 490 564 38,000  Level Salt Lake Center
03:59PM 43.5550 -110.7689 201° Southwest 496 571 38,000  Level Salt Lake Center
04:01PM 43.4317 -110.8294 200° South 494 568 38,000  Level Salt Lake Center
04:02PM 43.2881 -110.9033 201° Southwest 494 568 38,000  Level Salt Lake Center
04:03PM 43.1642 -110.9647 200° South 492 566 38,000  Level Salt Lake Center
04:04PM 43.0383 -111.0283 200° South 501 577 38,000  Level Salt Lake Center
04:05PM 42.8936 -111.1014 200° South 499 574 38,000  Level Salt Lake Center
04:06PM 42.7681 -111.1625 200° South 499 574 38,000  Level Salt Lake Center
04:07PM 42.6253 -111.2317 200° South 500 575 38,000  Level Salt Lake Center
04:08PM 42.4958 -111.2956 200° South 497 572 38,000  Level Salt Lake Center
04:09PM 42.3675 -111.3572 200° South 492 566 38,000  Level Salt Lake Center
04:10PM 42.2400 -111.4208 200° South 490 564 38,000  Level Salt Lake Center
04:11PM 42.1117 -111.4822 200° South 491 565 38,000  Level Salt Lake Center
04:17PM 41.3170 -111.8610 200° South 493 567 38,000  Level FlightAware
04:17PM 41.2320 -111.9000 199° South 493 567 38,000  Level FlightAware
04:18PM 41.1420 -111.9410 199° South 494 568 38,000  Level FlightAware
04:19PM 41.0360 -111.9920 200° South 493 567 38,000  Level FlightAware
04:20PM 40.9490 -112.0320 199° South 493 567 38,000  Level FlightAware
04:20PM 40.8660 -112.0710 200° South 492 566 38,000  Level FlightAware
04:21PM 40.7690 -112.1160 199° South 492 566 38,000  Level FlightAware
04:22PM 40.6790 -112.1580 199° South 492 566 38,000  Level FlightAware
04:22PM 40.5920 -112.1970 199° South 491 565 38,000  Level FlightAware
04:23PM 40.4990 -112.2410 200° South 492 566 38,000  Level FlightAware
04:24PM 40.3980 -112.2860 199° South 492 566 38,000  Level FlightAware
04:25PM 40.3120 -112.3260 200° South 494 568 38,000  Level FlightAware
04:25PM 40.2280 -112.3640 199° South 496 571 38,000  Level FlightAware
04:26PM 40.1390 -112.4040 199° South 497 572 38,000  Level FlightAware
04:27PM 40.0540 -112.4420 199° South 497 572 38,000  Level FlightAware
04:27PM 39.9580 -112.4860 199° South 499 574 38,000  Level FlightAware
04:28PM 39.8690 -112.5260 199° South 499 574 38,000  Level FlightAware
04:29PM 39.7950 -112.5600 199° South 499 574 38,000  Level FlightAware
04:29PM 39.7210 -112.5930 199° South 499 574 38,000  Level FlightAware
04:30PM 39.6470 -112.6260 199° South 499 574 38,000  Level FlightAware
04:31PM 39.5540 -112.6670 199° South 499 574 38,000  Level FlightAware
04:32PM 39.4800 -112.7010 200° South 499 574 38,000  Level FlightAware
04:32PM 39.4060 -112.7340 199° South 499 574 38,000  Level FlightAware
04:33PM 39.3310 -112.7670 199° South 499 574 38,000  Level FlightAware
04:34PM 39.2570 -112.8000 199° South 499 574 38,000  Level FlightAware
04:34PM 39.1640 -112.8410 199° South 499 574 38,000  Level FlightAware
04:35PM 39.0900 -112.8740 199° South 499 574 38,000  Level FlightAware
04:36PM 39.0160 -112.9070 199° South 499 574 38,000  Level FlightAware
04:36PM 38.9420 -112.9400 199° South 499 574 38,000  Level FlightAware
04:37PM 38.8670 -112.9720 198° South 499 574 38,000  Level FlightAware
04:37PM 38.6269 -113.0764 198° South 493 567 38,000  Level Salt Lake Center
04:38PM 38.4969 -113.1322 199° South 495 570 38,000  Level Salt Lake Center
04:39PM 38.3661 -113.1878 198° South 498 573 38,000  Level Salt Lake Center
04:41PM 38.2358 -113.2433 199° South 497 572 38,000  Level Salt Lake Center
04:46PM 37.4910 -113.7100 199° South 501 577 38,000  Level FlightAware
04:47PM 37.4050 -113.7790 213° Southwest 502 578 38,000  Level FlightAware
04:48PM 37.3220 -113.8440 212° Southwest 502 578 38,000  Level FlightAware
04:49PM 37.2470 -113.9010 211° Southwest 501 577 38,000  Level FlightAware
04:49PM 37.1550 -113.9730 212° Southwest 501 577 38,000  Level FlightAware
04:50PM 37.0870 -114.0270 212° Southwest 502 578 38,000  Level FlightAware
04:51PM 36.9860 -114.1060 212° Southwest 503 579 38,000  Level FlightAware
04:51PM 36.9100 -114.1650 212° Southwest 503 579 38,000  Level FlightAware
04:52PM 36.8270 -114.2280 211° Southwest 503 579 38,000  Level FlightAware
04:53PM 36.7400 -114.2960 212° Southwest 504 580 38,000  Level FlightAware
04:53PM 36.6600 -114.3570 211° Southwest 507 583 38,000  Level FlightAware
04:54PM 36.5700 -114.4260 212° Southwest 509 586 38,000  Level FlightAware
04:55PM 36.4890 -114.4890 212° Southwest 510 587 38,000  Level FlightAware
04:56PM 36.4080 -114.5510 212° Southwest 512 589 38,000  Level FlightAware
04:56PM 36.3180 -114.6190 211° Southwest 512 589 38,000  Level FlightAware
04:57PM 36.2380 -114.6800 212° Southwest 514 592 38,000  Level FlightAware
04:58PM 36.1430 -114.7510 211° Southwest 513 590 38,000  Level FlightAware
04:58PM 36.0610 -114.8140 212° Southwest 514 592 38,000  Level FlightAware
04:59PM 35.9790 -114.8890 217° Southwest 509 586 38,000  Level FlightAware
05:00PM 35.9130 -114.9750 227° Southwest 506 582 38,000  Level FlightAware
05:00PM 35.8520 -115.0580 228° Southwest 506 582 38,000  Level FlightAware
05:01PM 35.7790 -115.1570 228° Southwest 505 581 38,000  Level FlightAware
05:02PM 35.7150 -115.2440 228° Southwest 505 581 38,000  Level FlightAware
05:03PM 35.6460 -115.3360 227° Southwest 505 581 38,000  Level FlightAware
05:03PM 35.5840 -115.4210 228° Southwest 505 581 38,000  Level FlightAware
05:04PM 35.5210 -115.5050 227° Southwest 504 580 38,000 -180 Level FlightAware
05:05PM 35.4500 -115.6000 227° Southwest 511 588 37,800 -720 Descending FlightAware
05:05PM 35.3820 -115.6910 228° Southwest 518 596 37,000 -1,200 Descending FlightAware
05:06PM 35.3200 -115.7740 228° Southwest 506 582 36,200 -1,140 Descending FlightAware
05:07PM 35.2270 -115.8970 227° Southwest 507 583 35,100 -720 Descending FlightAware
05:08PM 35.1760 -115.9640 227° Southwest 507 583 35,100  Level FlightAware
05:08PM 35.1210 -116.0360 227° Southwest 507 583 35,100 -1,140 Level FlightAware
05:09PM 35.0150 -116.1770 227° Southwest 509 586 33,200 -1,140 Descending FlightAware
05:10PM 34.9600 -116.2490 227° Southwest 509 586 33,200 -1,560 Level FlightAware
05:11PM 34.8780 -116.3560 227° Southwest 484 557 31,000 -2,160 Descending FlightAware
05:11PM 34.8070 -116.4470 226° Southwest 487 560 30,000 -1,380 Descending FlightAware
05:12PM 34.7430 -116.5170 222° Southwest 487 560 29,100 -1,380 Descending FlightAware
05:13PM 34.6660 -116.5890 218° Southwest 479 551 28,100 -1,380 Descending FlightAware
05:14PM 34.5920 -116.6540 216° Southwest 472 543 27,200 -1,380 Descending FlightAware
05:14PM 34.5220 -116.7200 218° Southwest 464 534 26,300 -1,680 Descending FlightAware
05:15PM 34.4450 -116.7930 218° Southwest 456 525 24,900 -1,980 Descending FlightAware
05:16PM 34.3780 -116.8550 217° Southwest 446 513 23,500 -2,220 Descending FlightAware
05:16PM 34.3150 -116.9150 218° Southwest 436 502 22,000 -1,740 Descending FlightAware
05:17PM 34.2440 -116.9800 217° Southwest 419 482 21,100 -1,320 Descending FlightAware
05:18PM 34.1840 -117.0380 219° Southwest 402 463 20,200 -1,680 Descending FlightAware
05:18PM 34.1180 -117.1020 219° Southwest 391 450 18,800 -1,500 Descending FlightAware
05:19PM 34.0800 -117.1710 236° Southwest 370 426 18,100 -720 Descending FlightAware
05:20PM 34.0440 -117.2130 224° Southwest 355 409 18,000 -540 Descending FlightAware
05:20PM 33.9830 -117.2370 198° South 346 398 17,500 -780 Descending FlightAware
05:21PM 33.9660 -117.2540 220° Southwest 340 391 17,300 -1,200 Descending FlightAware
05:21PM 33.9550 -117.2800 243° Southwest 329 379 16,900 -1,680 Descending FlightAware
05:21PM 33.9530 -117.3000 263° West 323 372 16,600 -1,860 Descending FlightAware
05:22PM 33.9600 -117.3780 276° West 323 372 15,200 -1,800 Descending FlightAware
05:22PM 33.9700 -117.4490 280° West 329 379 14,100 -1,680 Descending FlightAware
05:23PM 33.9820 -117.5340 280° West 327 376 12,900 -1,500 Descending FlightAware
05:24PM 33.9930 -117.6030 281° West 319 367 12,000 -1,200 Descending FlightAware
05:25PM 34.0030 -117.6800 279° West 312 359 11,200 -1,200 Descending FlightAware
05:25PM 34.0020 -117.7480 269° West 309 356 10,300 -1,320 Descending FlightAware
05:26PM 33.9980 -117.7920 264° West 302 348 9,800 -1,380 Descending FlightAware
05:26PM 33.9950 -117.8150 261° West 302 348 9,400 -1,740 Descending FlightAware
05:26PM 33.9890 -117.8660 262° West 306 352 8,500 -1,860 Descending FlightAware
05:27PM 33.9840 -117.9080 262° West 298 343 7,700 -1,680 Descending FlightAware
05:27PM 33.9800 -117.9560 264° West 281 323 7,000 -1,560 Descending FlightAware
05:28PM 33.9760 -117.9940 263° West 265 305 6,300 -1,500 Descending FlightAware
05:28PM 33.9740 -118.0170 264° West 253 291 6,000 -1,380 Descending FlightAware
05:28PM 33.9700 -118.0570 263° West 234 269 5,300 -1,320 Descending FlightAware
05:29PM 33.9670 -118.0870 263° West 222 255 4,800 -1,200 Descending FlightAware
05:29PM 33.9640 -118.1230 264° West 210 242 4,200 -1,140 Descending FlightAware
05:30PM 33.9600 -118.1570 262° West 199 229 3,700 -1,080 Descending FlightAware
05:30PM 33.9580 -118.1750 262° West 193 222 3,400 -1,080 Descending FlightAware
05:31PM 33.9560 -118.1970 264° West 186 214 3,000 -1,080 Descending FlightAware
05:31PM 33.9540 -118.2160 263° West 182 209 2,700 -1,080 Descending FlightAware
05:31PM 33.9510 -118.2450 263° West 184 212 2,200 -900 Descending FlightAware
05:31PM 33.9500 -118.2560 264° West 185 213 2,100 -420 Descending FlightAware
05:32PM 33.9470 -118.2880 264° West 185 213 1,900 -600 Descending FlightAware
05:32PM 33.9469 -118.2944 264° West 186 214 1,600 -960 Descending Los Angeles Center
05:33PM 33.9411 -118.3517 263° West 160 184 700 -720 Descending Los Angeles Center
05:34PM 33.9378 -118.3922 264° West 150 173 200 -540 Descending Los Angeles Center
05:36PM 33.9333 -118.4000 259° West  Level FlightAware Approximate
05:43PM 33.9425 -118.4081 259° West  Level Estimated